sensor_id;sensor_type;location;lat;lon;timestamp;P1;durP1;ratioP1;P2;durP2;ratioP2
9815;SDS011;4947;44.526;11.360;2022-09-17T00:00:22;13.77;;;2.85;;
9815;SDS011;4947;44.526;11.360;2022-09-17T00:02:50;16.65;;;3.45;;
9815;SDS011;4947;44.526;11.360;2022-09-17T00:05:19;11.18;;;2.30;;
9815;SDS011;4947;44.526;11.360;2022-09-17T00:07:50;11.18;;;2.28;;
9815;SDS011;4947;44.526;11.360;2022-09-17T00:10:18;12.40;;;2.88;;
9815;SDS011;4947;44.526;11.360;2022-09-17T00:12:47;18.95;;;2.88;;
9815;SDS011;4947;44.526;11.360;2022-09-17T00:15:15;10.82;;;2.33;;
9815;SDS011;4947;44.526;11.360;2022-09-17T00:17:44;15.02;;;3.22;;
9815;SDS011;4947;44.526;11.360;2022-09-17T00:20:12;13.82;;;2.63;;
9815;SDS011;4947;44.526;11.360;2022-09-17T00:22:39;17.23;;;3.55;;
9815;SDS011;4947;44.526;11.360;2022-09-17T00:25:08;12.93;;;2.47;;
9815;SDS011;4947;44.526;11.360;2022-09-17T00:27:36;15.52;;;3.60;;
9815;SDS011;4947;44.526;11.360;2022-09-17T00:30:04;8.73;;;2.38;;
9815;SDS011;4947;44.526;11.360;2022-09-17T00:32:34;13.13;;;3.63;;
9815;SDS011;4947;44.526;11.360;2022-09-17T00:35:01;15.32;;;2.40;;
9815;SDS011;4947;44.526;11.360;2022-09-17T00:37:29;18.20;;;3.30;;
9815;SDS011;4947;44.526;11.360;2022-09-17T00:39:56;12.10;;;3.28;;
9815;SDS011;4947;44.526;11.360;2022-09-17T00:42:25;14.00;;;3.50;;
9815;SDS011;4947;44.526;11.360;2022-09-17T00:44:53;14.52;;;2.67;;
9815;SDS011;4947;44.526;11.360;2022-09-17T00:47:27;12.88;;;2.97;;
9815;SDS011;4947;44.526;11.360;2022-09-17T00:49:56;11.88;;;2.75;;
9815;SDS011;4947;44.526;11.360;2022-09-17T00:52:27;7.60;;;2.10;;
9815;SDS011;4947;44.526;11.360;2022-09-17T00:55:00;9.70;;;2.90;;
9815;SDS011;4947;44.526;11.360;2022-09-17T00:57:33;10.70;;;2.35;;
9815;SDS011;4947;44.526;11.360;2022-09-17T01:00:03;13.55;;;2.92;;
9815;SDS011;4947;44.526;11.360;2022-09-17T01:02:31;14.98;;;3.00;;
9815;SDS011;4947;44.526;11.360;2022-09-17T01:05:03;18.08;;;2.95;;
9815;SDS011;4947;44.526;11.360;2022-09-17T01:10:38;15.43;;;2.75;;
9815;SDS011;4947;44.526;11.360;2022-09-17T01:13:36;13.48;;;2.03;;
9815;SDS011;4947;44.526;11.360;2022-09-17T01:16:17;13.27;;;2.20;;
9815;SDS011;4947;44.526;11.360;2022-09-17T01:18:53;12.98;;;2.03;;
9815;SDS011;4947;44.526;11.360;2022-09-17T01:21:33;15.68;;;2.05;;
9815;SDS011;4947;44.526;11.360;2022-09-17T01:24:20;8.82;;;2.05;;
9815;SDS011;4947;44.526;11.360;2022-09-17T01:30:41;7.35;;;2.03;;
9815;SDS011;4947;44.526;11.360;2022-09-17T01:33:32;12.25;;;2.30;;
9815;SDS011;4947;44.526;11.360;2022-09-17T01:36:15;11.18;;;2.42;;
9815;SDS011;4947;44.526;11.360;2022-09-17T01:38:50;13.27;;;2.22;;
9815;SDS011;4947;44.526;11.360;2022-09-17T01:41:23;7.00;;;2.35;;
9815;SDS011;4947;44.526;11.360;2022-09-17T01:44:00;7.15;;;1.83;;
9815;SDS011;4947;44.526;11.360;2022-09-17T01:46:34;7.35;;;1.90;;
9815;SDS011;4947;44.526;11.360;2022-09-17T01:49:06;13.07;;;2.17;;
9815;SDS011;4947;44.526;11.360;2022-09-17T01:51:35;8.00;;;2.78;;
9815;SDS011;4947;44.526;11.360;2022-09-17T01:54:09;9.45;;;2.17;;
9815;SDS011;4947;44.526;11.360;2022-09-17T01:56:43;9.52;;;1.88;;
9815;SDS011;4947;44.526;11.360;2022-09-17T01:59:15;9.45;;;2.58;;
9815;SDS011;4947;44.526;11.360;2022-09-17T02:01:49;13.02;;;2.15;;
9815;SDS011;4947;44.526;11.360;2022-09-17T02:04:20;7.97;;;1.80;;
9815;SDS011;4947;44.526;11.360;2022-09-17T02:06:52;8.85;;;2.22;;
9815;SDS011;4947;44.526;11.360;2022-09-17T02:09:25;15.48;;;2.20;;
9815;SDS011;4947;44.526;11.360;2022-09-17T02:11:58;12.23;;;2.15;;
9815;SDS011;4947;44.526;11.360;2022-09-17T02:14:29;9.48;;;2.38;;
9815;SDS011;4947;44.526;11.360;2022-09-17T02:17:06;12.02;;;2.00;;
9815;SDS011;4947;44.526;11.360;2022-09-17T02:19:39;8.35;;;2.53;;
9815;SDS011;4947;44.526;11.360;2022-09-17T02:22:11;11.77;;;2.30;;
9815;SDS011;4947;44.526;11.360;2022-09-17T02:24:46;6.57;;;2.03;;
9815;SDS011;4947;44.526;11.360;2022-09-17T02:27:23;6.63;;;2.20;;
9815;SDS011;4947;44.526;11.360;2022-09-17T02:30:00;7.90;;;1.73;;
9815;SDS011;4947;44.526;11.360;2022-09-17T02:32:29;8.30;;;1.65;;
9815;SDS011;4947;44.526;11.360;2022-09-17T02:34:57;5.43;;;1.25;;
9815;SDS011;4947;44.526;11.360;2022-09-17T02:37:24;5.50;;;1.50;;
9815;SDS011;4947;44.526;11.360;2022-09-17T02:39:52;11.27;;;1.63;;
9815;SDS011;4947;44.526;11.360;2022-09-17T02:42:21;9.45;;;1.60;;
9815;SDS011;4947;44.526;11.360;2022-09-17T02:44:57;5.13;;;1.60;;
9815;SDS011;4947;44.526;11.360;2022-09-17T02:47:41;6.90;;;1.50;;
9815;SDS011;4947;44.526;11.360;2022-09-17T02:50:38;4.85;;;1.27;;
9815;SDS011;4947;44.526;11.360;2022-09-17T02:53:20;5.50;;;1.55;;
9815;SDS011;4947;44.526;11.360;2022-09-17T02:55:59;6.63;;;1.17;;
9815;SDS011;4947;44.526;11.360;2022-09-17T02:58:37;5.00;;;1.08;;
9815;SDS011;4947;44.526;11.360;2022-09-17T03:01:11;7.78;;;1.65;;
9815;SDS011;4947;44.526;11.360;2022-09-17T03:03:47;3.03;;;1.05;;
9815;SDS011;4947;44.526;11.360;2022-09-17T03:06:16;5.70;;;1.45;;
9815;SDS011;4947;44.526;11.360;2022-09-17T03:08:44;2.58;;;1.17;;
9815;SDS011;4947;44.526;11.360;2022-09-17T03:11:13;3.28;;;1.00;;
9815;SDS011;4947;44.526;11.360;2022-09-17T03:13:40;6.22;;;1.95;;
9815;SDS011;4947;44.526;11.360;2022-09-17T03:16:08;2.33;;;1.02;;
9815;SDS011;4947;44.526;11.360;2022-09-17T03:18:36;1.60;;;0.85;;
9815;SDS011;4947;44.526;11.360;2022-09-17T03:21:04;3.33;;;1.10;;
9815;SDS011;4947;44.526;11.360;2022-09-17T03:23:32;2.95;;;1.15;;
9815;SDS011;4947;44.526;11.360;2022-09-17T03:25:59;1.95;;;1.00;;
9815;SDS011;4947;44.526;11.360;2022-09-17T03:28:27;4.60;;;1.20;;
9815;SDS011;4947;44.526;11.360;2022-09-17T03:30:54;5.55;;;1.27;;
9815;SDS011;4947;44.526;11.360;2022-09-17T03:33:22;6.47;;;1.25;;
9815;SDS011;4947;44.526;11.360;2022-09-17T03:35:49;6.10;;;1.20;;
9815;SDS011;4947;44.526;11.360;2022-09-17T03:38:18;2.58;;;1.20;;
9815;SDS011;4947;44.526;11.360;2022-09-17T03:40:55;4.47;;;1.20;;
9815;SDS011;4947;44.526;11.360;2022-09-17T03:43:24;2.45;;;1.15;;
9815;SDS011;4947;44.526;11.360;2022-09-17T03:45:51;3.40;;;1.00;;
9815;SDS011;4947;44.526;11.360;2022-09-17T03:48:19;4.15;;;0.98;;
9815;SDS011;4947;44.526;11.360;2022-09-17T03:50:47;6.70;;;1.55;;
9815;SDS011;4947;44.526;11.360;2022-09-17T03:53:15;4.13;;;1.33;;
9815;SDS011;4947;44.526;11.360;2022-09-17T03:55:44;3.83;;;1.10;;
9815;SDS011;4947;44.526;11.360;2022-09-17T03:58:12;1.40;;;0.98;;
9815;SDS011;4947;44.526;11.360;2022-09-17T04:00:39;4.38;;;1.17;;
9815;SDS011;4947;44.526;11.360;2022-09-17T04:03:07;4.50;;;1.17;;
9815;SDS011;4947;44.526;11.360;2022-09-17T04:05:34;3.45;;;1.10;;
9815;SDS011;4947;44.526;11.360;2022-09-17T04:08:01;2.25;;;1.10;;
9815;SDS011;4947;44.526;11.360;2022-09-17T04:10:29;4.13;;;1.38;;
9815;SDS011;4947;44.526;11.360;2022-09-17T04:12:58;6.22;;;1.45;;
9815;SDS011;4947;44.526;11.360;2022-09-17T04:15:25;12.20;;;1.85;;
9815;SDS011;4947;44.526;11.360;2022-09-17T04:17:54;7.82;;;1.50;;
9815;SDS011;4947;44.526;11.360;2022-09-17T04:20:23;3.45;;;1.13;;
9815;SDS011;4947;44.526;11.360;2022-09-17T04:22:52;9.43;;;1.65;;
9815;SDS011;4947;44.526;11.360;2022-09-17T04:25:19;5.05;;;1.60;;
9815;SDS011;4947;44.526;11.360;2022-09-17T04:27:47;9.82;;;1.50;;
9815;SDS011;4947;44.526;11.360;2022-09-17T04:30:17;2.80;;;1.00;;
9815;SDS011;4947;44.526;11.360;2022-09-17T04:32:44;8.40;;;1.75;;
9815;SDS011;4947;44.526;11.360;2022-09-17T04:35:12;2.63;;;1.20;;
9815;SDS011;4947;44.526;11.360;2022-09-17T04:37:40;6.55;;;1.60;;
9815;SDS011;4947;44.526;11.360;2022-09-17T04:40:08;5.95;;;1.50;;
9815;SDS011;4947;44.526;11.360;2022-09-17T04:42:36;9.10;;;1.83;;
9815;SDS011;4947;44.526;11.360;2022-09-17T04:45:03;16.08;;;1.40;;
9815;SDS011;4947;44.526;11.360;2022-09-17T04:47:36;8.73;;;1.77;;
9815;SDS011;4947;44.526;11.360;2022-09-17T04:50:04;7.47;;;1.48;;
9815;SDS011;4947;44.526;11.360;2022-09-17T04:52:32;13.43;;;2.03;;
9815;SDS011;4947;44.526;11.360;2022-09-17T04:54:59;5.40;;;1.67;;
9815;SDS011;4947;44.526;11.360;2022-09-17T04:57:27;10.23;;;1.90;;
9815;SDS011;4947;44.526;11.360;2022-09-17T04:59:54;7.60;;;2.42;;
9815;SDS011;4947;44.526;11.360;2022-09-17T05:02:22;5.47;;;2.13;;
9815;SDS011;4947;44.526;11.360;2022-09-17T05:04:51;6.95;;;1.67;;
9815;SDS011;4947;44.526;11.360;2022-09-17T05:07:18;14.82;;;3.00;;
9815;SDS011;4947;44.526;11.360;2022-09-17T05:09:46;9.77;;;1.85;;
9815;SDS011;4947;44.526;11.360;2022-09-17T05:12:13;13.75;;;3.13;;
9815;SDS011;4947;44.526;11.360;2022-09-17T05:14:40;6.57;;;2.03;;
9815;SDS011;4947;44.526;11.360;2022-09-17T05:17:08;12.73;;;2.50;;
9815;SDS011;4947;44.526;11.360;2022-09-17T05:19:35;11.27;;;2.15;;
9815;SDS011;4947;44.526;11.360;2022-09-17T05:22:04;20.67;;;3.70;;
9815;SDS011;4947;44.526;11.360;2022-09-17T05:24:31;13.20;;;3.05;;
9815;SDS011;4947;44.526;11.360;2022-09-17T05:27:03;15.48;;;2.50;;
9815;SDS011;4947;44.526;11.360;2022-09-17T05:29:31;8.15;;;2.58;;
9815;SDS011;4947;44.526;11.360;2022-09-17T05:31:58;13.80;;;2.28;;
9815;SDS011;4947;44.526;11.360;2022-09-17T05:34:26;11.50;;;2.15;;
9815;SDS011;4947;44.526;11.360;2022-09-17T05:36:53;11.40;;;2.30;;
9815;SDS011;4947;44.526;11.360;2022-09-17T05:39:22;14.52;;;2.42;;
9815;SDS011;4947;44.526;11.360;2022-09-17T05:41:50;8.15;;;1.98;;
9815;SDS011;4947;44.526;11.360;2022-09-17T05:44:18;7.95;;;1.60;;
9815;SDS011;4947;44.526;11.360;2022-09-17T05:46:46;9.77;;;1.58;;
9815;SDS011;4947;44.526;11.360;2022-09-17T05:49:13;2.75;;;1.30;;
9815;SDS011;4947;44.526;11.360;2022-09-17T05:51:41;3.53;;;1.42;;
9815;SDS011;4947;44.526;11.360;2022-09-17T05:54:09;5.43;;;1.02;;
9815;SDS011;4947;44.526;11.360;2022-09-17T05:56:38;2.75;;;1.10;;
9815;SDS011;4947;44.526;11.360;2022-09-17T05:59:06;4.25;;;0.82;;
9815;SDS011;4947;44.526;11.360;2022-09-17T06:01:33;1.08;;;0.88;;
9815;SDS011;4947;44.526;11.360;2022-09-17T06:04:01;7.78;;;1.33;;
9815;SDS011;4947;44.526;11.360;2022-09-17T06:06:28;3.90;;;1.02;;
9815;SDS011;4947;44.526;11.360;2022-09-17T06:08:57;0.80;;;0.73;;
9815;SDS011;4947;44.526;11.360;2022-09-17T06:11:25;2.67;;;0.90;;
9815;SDS011;4947;44.526;11.360;2022-09-17T06:13:54;0.60;;;0.60;;
9815;SDS011;4947;44.526;11.360;2022-09-17T06:16:22;1.33;;;0.85;;
9815;SDS011;4947;44.526;11.360;2022-09-17T06:18:50;2.28;;;0.90;;
9815;SDS011;4947;44.526;11.360;2022-09-17T06:21:18;0.80;;;0.70;;
9815;SDS011;4947;44.526;11.360;2022-09-17T06:23:46;2.58;;;0.80;;
9815;SDS011;4947;44.526;11.360;2022-09-17T06:26:15;0.95;;;0.80;;
9815;SDS011;4947;44.526;11.360;2022-09-17T06:28:42;0.80;;;0.80;;
9815;SDS011;4947;44.526;11.360;2022-09-17T06:31:12;1.02;;;1.00;;
9815;SDS011;4947;44.526;11.360;2022-09-17T06:33:39;5.30;;;0.73;;
9815;SDS011;4947;44.526;11.360;2022-09-17T06:36:07;1.48;;;0.90;;
9815;SDS011;4947;44.526;11.360;2022-09-17T06:38:36;1.60;;;0.90;;
9815;SDS011;4947;44.526;11.360;2022-09-17T06:41:06;1.00;;;0.75;;
9815;SDS011;4947;44.526;11.360;2022-09-17T06:43:33;3.47;;;0.80;;
9815;SDS011;4947;44.526;11.360;2022-09-17T06:46:02;4.55;;;1.23;;
9815;SDS011;4947;44.526;11.360;2022-09-17T06:48:34;6.53;;;1.17;;
9815;SDS011;4947;44.526;11.360;2022-09-17T06:51:04;2.05;;;0.98;;
9815;SDS011;4947;44.526;11.360;2022-09-17T06:53:34;2.85;;;1.63;;
9815;SDS011;4947;44.526;11.360;2022-09-17T06:56:02;1.95;;;0.95;;
9815;SDS011;4947;44.526;11.360;2022-09-17T06:58:30;7.18;;;1.80;;
9815;SDS011;4947;44.526;11.360;2022-09-17T07:00:57;6.63;;;1.30;;
9815;SDS011;4947;44.526;11.360;2022-09-17T07:03:26;7.22;;;1.80;;
9815;SDS011;4947;44.526;11.360;2022-09-17T07:05:56;1.33;;;1.08;;
9815;SDS011;4947;44.526;11.360;2022-09-17T07:08:24;1.13;;;1.02;;
9815;SDS011;4947;44.526;11.360;2022-09-17T07:10:53;4.55;;;1.15;;
9815;SDS011;4947;44.526;11.360;2022-09-17T07:13:21;3.15;;;1.02;;
9815;SDS011;4947;44.526;11.360;2022-09-17T07:15:52;3.28;;;1.00;;
9815;SDS011;4947;44.526;11.360;2022-09-17T07:18:20;0.88;;;0.88;;
9815;SDS011;4947;44.526;11.360;2022-09-17T07:20:52;1.20;;;0.93;;
9815;SDS011;4947;44.526;11.360;2022-09-17T07:23:22;3.45;;;1.27;;
9815;SDS011;4947;44.526;11.360;2022-09-17T07:25:51;2.63;;;0.90;;
9815;SDS011;4947;44.526;11.360;2022-09-17T07:28:19;3.90;;;1.15;;
9815;SDS011;4947;44.526;11.360;2022-09-17T07:30:47;2.38;;;1.60;;
9815;SDS011;4947;44.526;11.360;2022-09-17T07:33:15;3.15;;;2.13;;
9815;SDS011;4947;44.526;11.360;2022-09-17T07:35:50;7.15;;;1.60;;
9815;SDS011;4947;44.526;11.360;2022-09-17T07:38:18;8.52;;;1.67;;
9815;SDS011;4947;44.526;11.360;2022-09-17T07:40:53;2.78;;;1.60;;
9815;SDS011;4947;44.526;11.360;2022-09-17T07:43:22;12.90;;;1.75;;
9815;SDS011;4947;44.526;11.360;2022-09-17T07:45:50;3.80;;;1.60;;
9815;SDS011;4947;44.526;11.360;2022-09-17T07:48:18;2.63;;;1.45;;
9815;SDS011;4947;44.526;11.360;2022-09-17T07:50:46;6.05;;;1.25;;
9815;SDS011;4947;44.526;11.360;2022-09-17T07:53:13;8.95;;;1.48;;
9815;SDS011;4947;44.526;11.360;2022-09-17T07:55:41;2.60;;;1.40;;
9815;SDS011;4947;44.526;11.360;2022-09-17T07:58:10;2.45;;;1.10;;
9815;SDS011;4947;44.526;11.360;2022-09-17T08:00:37;2.47;;;1.20;;
9815;SDS011;4947;44.526;11.360;2022-09-17T08:03:05;10.77;;;1.92;;
9815;SDS011;4947;44.526;11.360;2022-09-17T08:05:33;10.20;;;1.65;;
9815;SDS011;4947;44.526;11.360;2022-09-17T08:08:00;1.67;;;1.10;;
9815;SDS011;4947;44.526;11.360;2022-09-17T08:10:28;5.95;;;1.70;;
9815;SDS011;4947;44.526;11.360;2022-09-17T08:12:56;1.63;;;1.20;;
9815;SDS011;4947;44.526;11.360;2022-09-17T08:15:25;1.60;;;1.10;;
9815;SDS011;4947;44.526;11.360;2022-09-17T08:17:53;2.60;;;1.50;;
9815;SDS011;4947;44.526;11.360;2022-09-17T08:20:20;6.53;;;1.40;;
9815;SDS011;4947;44.526;11.360;2022-09-17T08:22:48;1.27;;;1.13;;
9815;SDS011;4947;44.526;11.360;2022-09-17T08:25:16;2.78;;;1.17;;
9815;SDS011;4947;44.526;11.360;2022-09-17T08:27:43;2.40;;;1.30;;
9815;SDS011;4947;44.526;11.360;2022-09-17T08:30:11;2.55;;;2.20;;
9815;SDS011;4947;44.526;11.360;2022-09-17T08:32:40;3.97;;;1.35;;
9815;SDS011;4947;44.526;11.360;2022-09-17T08:35:07;2.42;;;1.20;;
9815;SDS011;4947;44.526;11.360;2022-09-17T08:37:36;1.80;;;1.30;;
9815;SDS011;4947;44.526;11.360;2022-09-17T08:40:08;3.35;;;1.77;;
9815;SDS011;4947;44.526;11.360;2022-09-17T08:42:40;2.63;;;1.45;;
9815;SDS011;4947;44.526;11.360;2022-09-17T08:45:18;1.75;;;1.50;;
9815;SDS011;4947;44.526;11.360;2022-09-17T08:47:47;1.92;;;1.35;;
9815;SDS011;4947;44.526;11.360;2022-09-17T08:50:16;1.70;;;1.60;;
9815;SDS011;4947;44.526;11.360;2022-09-17T08:55:54;1.88;;;1.23;;
9815;SDS011;4947;44.526;11.360;2022-09-17T08:58:30;3.33;;;1.35;;
9815;SDS011;4947;44.526;11.360;2022-09-17T09:01:11;1.52;;;1.20;;
9815;SDS011;4947;44.526;11.360;2022-09-17T09:04:01;2.92;;;1.63;;
9815;SDS011;4947;44.526;11.360;2022-09-17T09:06:41;2.63;;;1.20;;
9815;SDS011;4947;44.526;11.360;2022-09-17T09:09:14;1.60;;;1.30;;
9815;SDS011;4947;44.526;11.360;2022-09-17T09:11:42;1.05;;;0.90;;
9815;SDS011;4947;44.526;11.360;2022-09-17T09:14:12;3.80;;;1.40;;
9815;SDS011;4947;44.526;11.360;2022-09-17T09:16:45;2.15;;;1.55;;
9815;SDS011;4947;44.526;11.360;2022-09-17T09:19:18;2.10;;;1.00;;
9815;SDS011;4947;44.526;11.360;2022-09-17T09:21:54;1.75;;;1.00;;
9815;SDS011;4947;44.526;11.360;2022-09-17T09:24:32;1.35;;;1.08;;
9815;SDS011;4947;44.526;11.360;2022-09-17T09:27:11;6.47;;;1.25;;
9815;SDS011;4947;44.526;11.360;2022-09-17T09:29:46;1.67;;;1.05;;
9815;SDS011;4947;44.526;11.360;2022-09-17T09:32:23;3.83;;;1.10;;
9815;SDS011;4947;44.526;11.360;2022-09-17T09:35:14;4.90;;;1.13;;
9815;SDS011;4947;44.526;11.360;2022-09-17T09:37:44;1.80;;;1.40;;
9815;SDS011;4947;44.526;11.360;2022-09-17T09:40:21;1.02;;;0.93;;
9815;SDS011;4947;44.526;11.360;2022-09-17T09:42:54;6.45;;;1.70;;
9815;SDS011;4947;44.526;11.360;2022-09-17T09:45:30;2.92;;;1.30;;
9815;SDS011;4947;44.526;11.360;2022-09-17T09:48:05;1.67;;;1.08;;
9815;SDS011;4947;44.526;11.360;2022-09-17T09:50:40;3.35;;;1.42;;
9815;SDS011;4947;44.526;11.360;2022-09-17T09:53:15;4.88;;;1.45;;
9815;SDS011;4947;44.526;11.360;2022-09-17T09:58:44;3.17;;;1.10;;
9815;SDS011;4947;44.526;11.360;2022-09-17T10:01:12;1.25;;;1.15;;
9815;SDS011;4947;44.526;11.360;2022-09-17T10:03:41;2.03;;;1.20;;
9815;SDS011;4947;44.526;11.360;2022-09-17T10:06:12;5.63;;;1.73;;
9815;SDS011;4947;44.526;11.360;2022-09-17T10:08:41;2.60;;;1.33;;
9815;SDS011;4947;44.526;11.360;2022-09-17T10:11:28;1.92;;;1.25;;
9815;SDS011;4947;44.526;11.360;2022-09-17T10:14:01;2.45;;;1.40;;
9815;SDS011;4947;44.526;11.360;2022-09-17T10:16:40;3.90;;;1.60;;
9815;SDS011;4947;44.526;11.360;2022-09-17T10:19:11;1.20;;;0.98;;
9815;SDS011;4947;44.526;11.360;2022-09-17T10:21:41;3.25;;;1.55;;
9815;SDS011;4947;44.526;11.360;2022-09-17T10:24:11;5.32;;;1.38;;
9815;SDS011;4947;44.526;11.360;2022-09-17T10:26:46;1.95;;;1.15;;
9815;SDS011;4947;44.526;11.360;2022-09-17T10:29:14;4.10;;;1.33;;
9815;SDS011;4947;44.526;11.360;2022-09-17T10:31:45;1.83;;;1.25;;
9815;SDS011;4947;44.526;11.360;2022-09-17T10:34:17;1.90;;;1.15;;
9815;SDS011;4947;44.526;11.360;2022-09-17T10:36:47;2.25;;;1.27;;
9815;SDS011;4947;44.526;11.360;2022-09-17T10:39:22;2.63;;;1.10;;
9815;SDS011;4947;44.526;11.360;2022-09-17T10:41:56;2.88;;;1.38;;
9815;SDS011;4947;44.526;11.360;2022-09-17T10:44:24;5.78;;;1.67;;
9815;SDS011;4947;44.526;11.360;2022-09-17T10:46:53;2.20;;;1.10;;
9815;SDS011;4947;44.526;11.360;2022-09-17T10:49:31;4.70;;;1.73;;
9815;SDS011;4947;44.526;11.360;2022-09-17T10:52:05;2.35;;;1.20;;
9815;SDS011;4947;44.526;11.360;2022-09-17T10:54:45;3.70;;;1.38;;
9815;SDS011;4947;44.526;11.360;2022-09-17T10:57:26;3.28;;;1.20;;
9815;SDS011;4947;44.526;11.360;2022-09-17T11:00:06;4.97;;;1.40;;
9815;SDS011;4947;44.526;11.360;2022-09-17T11:02:53;2.13;;;1.40;;
9815;SDS011;4947;44.526;11.360;2022-09-17T11:05:46;3.45;;;1.20;;
9815;SDS011;4947;44.526;11.360;2022-09-17T11:08:38;2.60;;;1.10;;
9815;SDS011;4947;44.526;11.360;2022-09-17T11:11:16;2.28;;;1.15;;
9815;SDS011;4947;44.526;11.360;2022-09-17T11:13:54;3.28;;;0.90;;
9815;SDS011;4947;44.526;11.360;2022-09-17T11:16:32;3.40;;;1.50;;
9815;SDS011;4947;44.526;11.360;2022-09-17T11:19:10;1.67;;;1.10;;
9815;SDS011;4947;44.526;11.360;2022-09-17T11:21:44;1.10;;;1.05;;
9815;SDS011;4947;44.526;11.360;2022-09-17T11:24:28;4.40;;;1.45;;
9815;SDS011;4947;44.526;11.360;2022-09-17T11:27:26;2.42;;;0.93;;
9815;SDS011;4947;44.526;11.360;2022-09-17T11:30:03;5.25;;;1.45;;
9815;SDS011;4947;44.526;11.360;2022-09-17T11:32:59;2.08;;;1.25;;
9815;SDS011;4947;44.526;11.360;2022-09-17T11:35:44;3.55;;;2.10;;
9815;SDS011;4947;44.526;11.360;2022-09-17T11:38:17;2.63;;;1.15;;
9815;SDS011;4947;44.526;11.360;2022-09-17T11:40:56;2.42;;;1.10;;
9815;SDS011;4947;44.526;11.360;2022-09-17T11:43:29;1.48;;;1.00;;
9815;SDS011;4947;44.526;11.360;2022-09-17T11:46:00;4.82;;;1.02;;
9815;SDS011;4947;44.526;11.360;2022-09-17T11:48:33;4.13;;;1.40;;
9815;SDS011;4947;44.526;11.360;2022-09-17T11:51:09;1.13;;;0.85;;
9815;SDS011;4947;44.526;11.360;2022-09-17T11:53:54;1.92;;;0.85;;
9815;SDS011;4947;44.526;11.360;2022-09-17T11:56:28;2.30;;;0.82;;
9815;SDS011;4947;44.526;11.360;2022-09-17T11:59:01;3.65;;;1.20;;
9815;SDS011;4947;44.526;11.360;2022-09-17T12:01:33;1.42;;;1.00;;
9815;SDS011;4947;44.526;11.360;2022-09-17T12:04:09;0.70;;;0.55;;
9815;SDS011;4947;44.526;11.360;2022-09-17T12:07:01;0.88;;;0.70;;
9815;SDS011;4947;44.526;11.360;2022-09-17T12:09:40;1.50;;;0.93;;
9815;SDS011;4947;44.526;11.360;2022-09-17T12:12:13;2.22;;;0.90;;
9815;SDS011;4947;44.526;11.360;2022-09-17T12:14:45;1.52;;;1.10;;
9815;SDS011;4947;44.526;11.360;2022-09-17T12:17:17;1.10;;;0.90;;
9815;SDS011;4947;44.526;11.360;2022-09-17T12:19:48;1.80;;;0.90;;
9815;SDS011;4947;44.526;11.360;2022-09-17T12:22:20;2.97;;;0.93;;
9815;SDS011;4947;44.526;11.360;2022-09-17T12:24:50;1.95;;;0.88;;
9815;SDS011;4947;44.526;11.360;2022-09-17T12:27:22;3.10;;;1.13;;
9815;SDS011;4947;44.526;11.360;2022-09-17T12:30:04;3.20;;;1.10;;
9815;SDS011;4947;44.526;11.360;2022-09-17T12:35:46;3.60;;;1.10;;
9815;SDS011;4947;44.526;11.360;2022-09-17T12:38:33;4.72;;;1.02;;
9815;SDS011;4947;44.526;11.360;2022-09-17T12:41:25;2.63;;;0.70;;
9815;SDS011;4947;44.526;11.360;2022-09-17T12:44:04;2.40;;;1.30;;
9815;SDS011;4947;44.526;11.360;2022-09-17T12:46:51;1.10;;;0.85;;
9815;SDS011;4947;44.526;11.360;2022-09-17T12:52:20;1.50;;;0.98;;
9815;SDS011;4947;44.526;11.360;2022-09-17T12:55:06;4.57;;;1.33;;
9815;SDS011;4947;44.526;11.360;2022-09-17T12:57:49;1.42;;;0.80;;
9815;SDS011;4947;44.526;11.360;2022-09-17T13:00:23;3.35;;;1.13;;
9815;SDS011;4947;44.526;11.360;2022-09-17T13:02:52;2.50;;;0.95;;
9815;SDS011;4947;44.526;11.360;2022-09-17T13:05:34;2.40;;;0.82;;
9815;SDS011;4947;44.526;11.360;2022-09-17T13:08:35;1.75;;;0.60;;
9815;SDS011;4947;44.526;11.360;2022-09-17T13:14:39;4.43;;;1.00;;
9815;SDS011;4947;44.526;11.360;2022-09-17T13:17:21;3.78;;;0.73;;
9815;SDS011;4947;44.526;11.360;2022-09-17T13:19:54;3.28;;;1.08;;
9815;SDS011;4947;44.526;11.360;2022-09-17T13:22:29;1.50;;;1.00;;
9815;SDS011;4947;44.526;11.360;2022-09-17T13:25:03;4.82;;;1.05;;
9815;SDS011;4947;44.526;11.360;2022-09-17T13:27:33;3.88;;;1.00;;
9815;SDS011;4947;44.526;11.360;2022-09-17T13:30:02;2.95;;;0.93;;
9815;SDS011;4947;44.526;11.360;2022-09-17T13:32:49;1.92;;;0.82;;
9815;SDS011;4947;44.526;11.360;2022-09-17T13:38:19;2.97;;;0.77;;
9815;SDS011;4947;44.526;11.360;2022-09-17T13:40:48;5.43;;;1.05;;
9815;SDS011;4947;44.526;11.360;2022-09-17T13:43:17;2.03;;;0.88;;
9815;SDS011;4947;44.526;11.360;2022-09-17T13:46:04;3.50;;;0.85;;
9815;SDS011;4947;44.526;11.360;2022-09-17T13:48:44;3.20;;;1.00;;
9815;SDS011;4947;44.526;11.360;2022-09-17T13:54:09;3.83;;;2.08;;
9815;SDS011;4947;44.526;11.360;2022-09-17T13:56:38;2.47;;;0.95;;
9815;SDS011;4947;44.526;11.360;2022-09-17T13:59:08;3.80;;;0.73;;
9815;SDS011;4947;44.526;11.360;2022-09-17T14:01:58;3.67;;;0.80;;
9815;SDS011;4947;44.526;11.360;2022-09-17T14:04:52;3.70;;;0.60;;
9815;SDS011;4947;44.526;11.360;2022-09-17T14:07:33;3.08;;;0.80;;
9815;SDS011;4947;44.526;11.360;2022-09-17T14:15:58;2.60;;;0.70;;
9815;SDS011;4947;44.526;11.360;2022-09-17T14:18:33;0.77;;;0.77;;
9815;SDS011;4947;44.526;11.360;2022-09-17T14:21:10;3.40;;;1.05;;
9815;SDS011;4947;44.526;11.360;2022-09-17T14:23:43;6.95;;;0.80;;
9815;SDS011;4947;44.526;11.360;2022-09-17T14:26:17;6.88;;;1.30;;
9815;SDS011;4947;44.526;11.360;2022-09-17T14:28:54;1.90;;;0.80;;
9815;SDS011;4947;44.526;11.360;2022-09-17T14:31:32;1.73;;;0.82;;
9815;SDS011;4947;44.526;11.360;2022-09-17T14:34:03;1.67;;;0.80;;
9815;SDS011;4947;44.526;11.360;2022-09-17T14:36:33;1.48;;;1.38;;
9815;SDS011;4947;44.526;11.360;2022-09-17T14:39:03;0.80;;;0.75;;
9815;SDS011;4947;44.526;11.360;2022-09-17T14:41:38;1.70;;;0.68;;
9815;SDS011;4947;44.526;11.360;2022-09-17T14:44:11;1.65;;;0.77;;
9815;SDS011;4947;44.526;11.360;2022-09-17T14:46:41;1.95;;;1.00;;
9815;SDS011;4947;44.526;11.360;2022-09-17T14:49:13;4.38;;;0.73;;
9815;SDS011;4947;44.526;11.360;2022-09-17T14:51:45;3.17;;;0.82;;
9815;SDS011;4947;44.526;11.360;2022-09-17T14:56:51;6.43;;;1.13;;
9815;SDS011;4947;44.526;11.360;2022-09-17T15:02:25;2.08;;;0.60;;
9815;SDS011;4947;44.526;11.360;2022-09-17T15:04:55;0.60;;;0.60;;
9815;SDS011;4947;44.526;11.360;2022-09-17T15:07:24;1.27;;;0.70;;
9815;SDS011;4947;44.526;11.360;2022-09-17T15:09:52;1.52;;;0.65;;
9815;SDS011;4947;44.526;11.360;2022-09-17T15:12:21;3.53;;;0.80;;
9815;SDS011;4947;44.526;11.360;2022-09-17T15:14:54;5.00;;;1.20;;
9815;SDS011;4947;44.526;11.360;2022-09-17T15:17:23;4.10;;;1.25;;
9815;SDS011;4947;44.526;11.360;2022-09-17T15:19:51;3.35;;;1.00;;
9815;SDS011;4947;44.526;11.360;2022-09-17T15:22:22;3.28;;;0.80;;
9815;SDS011;4947;44.526;11.360;2022-09-17T15:24:55;2.78;;;0.75;;
9815;SDS011;4947;44.526;11.360;2022-09-17T15:27:26;2.13;;;1.10;;
9815;SDS011;4947;44.526;11.360;2022-09-17T15:29:59;0.80;;;0.75;;
9815;SDS011;4947;44.526;11.360;2022-09-17T15:32:31;1.55;;;0.70;;
9815;SDS011;4947;44.526;11.360;2022-09-17T15:38:01;3.97;;;1.13;;
9815;SDS011;4947;44.526;11.360;2022-09-17T15:40:30;1.00;;;0.77;;
9815;SDS011;4947;44.526;11.360;2022-09-17T15:43:02;1.33;;;0.88;;
9815;SDS011;4947;44.526;11.360;2022-09-17T15:45:37;2.45;;;0.80;;
9815;SDS011;4947;44.526;11.360;2022-09-17T15:48:15;5.00;;;1.40;;
9815;SDS011;4947;44.526;11.360;2022-09-17T15:50:58;1.25;;;0.80;;
9815;SDS011;4947;44.526;11.360;2022-09-17T15:53:29;1.95;;;1.10;;
9815;SDS011;4947;44.526;11.360;2022-09-17T15:55:59;10.20;;;1.60;;
9815;SDS011;4947;44.526;11.360;2022-09-17T15:58:30;1.08;;;0.90;;
9815;SDS011;4947;44.526;11.360;2022-09-17T16:04:07;1.35;;;0.80;;
9815;SDS011;4947;44.526;11.360;2022-09-17T16:06:52;1.75;;;1.00;;
9815;SDS011;4947;44.526;11.360;2022-09-17T16:12:19;2.00;;;0.90;;
9815;SDS011;4947;44.526;11.360;2022-09-17T16:14:49;3.17;;;1.00;;
9815;SDS011;4947;44.526;11.360;2022-09-17T16:17:19;1.98;;;1.05;;
9815;SDS011;4947;44.526;11.360;2022-09-17T16:19:49;1.33;;;1.00;;